【羽田空港本店】梅雨空が続きますが、スカイブルーの「心」をいただきました!!!

LUXURY FLIGHT

080-7560-1817

羽田空港本店:東京都大田区羽田空港3-3-2
第1旅客ターミナル5階
営業時間:10:00~20:00 定休日:年中無休
電話番号:080-7560-1817

セントレア店:愛知県常滑市セントレア1-1
FLIGHT OF DREAMS FLIGHT PARK
営業時間:10:00~20:00 定休日:年中無休
電話番号:080-4945-5666

lv

【羽田空港本店】梅雨空が続きますが、スカイブルーの「心」をいただきました!!!

STAFF BLOG

2020/06/27 【羽田空港本店】梅雨空が続きますが、スカイブルーの「心」をいただきました!!!

こんちは

 

本日の羽田空港のMETARは…

RJTT 270400Z 08003KT 9999 FEW015 OVC/// 25/24 Q1004

NOSIG RMK 1CU015 A2966

 

img_6317

 

 

 

ここ数日、太陽を見れていない今日この頃…

 

羽田周辺は少々薄日が差しテンションが上がったので、ブログを書かせていただいております。笑

とはいえ、少々太陽が出ただけで蒸し暑さがグッと増した気がするのは私だけでしょうか…??

 

空気の匂いが、もう夏の気配。

勝手にアタマの中でサザンが流れ始めます。

 

 

そんな羽田空港本店に、すごく嬉しい贈り物が届きました。

 

 

 

ジャジャーン!!!!!!

 

img_6316

 

 

 

 

 

コレ、すごくないですか!?!?!?!?!?!?

 

 

クッキーです

 

 

鳥肌が立つくらい、袋を開けた時に感動しました。

 

北海道で、とあるお菓子屋さんをされているお客様なのですが、

羽田空港本店オープン記念に創って下さったそうで…

 

 

とはいえ流石にこれは…、食べれません!!笑

でも、本当に「心」がこもった贈り物…。泣

 

頂いた時の嬉しさ&感動はモチロンなのですが、

 

このお菓子を作ってくれている最中の姿を想像すると、それだけで心が暖かくなります。

だって作られている時は、絶対に弊社のことを考えてもらえていた訳で…

 

我々が何気なく仕事をこなし、生活していた時間のどこかで、

 

弊社の事を遠い地で考えてくれている方がいる・・・

 

 

そんなふうに考えるだけで、とても幸せな気持ちにさせていただきました。

 
社員一同で、末長く大切にさせて頂きます
 

本当にありがとうございました。

 

 

 

今回に限らず、オープン記念にいただいたお花や、品物の数々…

感謝してもしきれません。

 

 

ご注文をされる時、皆様が弊社のことを考えて下さったその瞬間を、

ずっとずっと大事にして参ります。

 

 

必ず、皆様の想いに応えてまいります。

本気でお約束いたします!!!!!

 

 

大事なことを改めて気付かせて頂いたK様。

 

 

改めてありがとうございました。

 

いつも弊社のブログをご覧くださり本当にありがとうございます。

 

「感謝」

 

 

 

 

 

 

TOP